sensor_id;sensor_type;location;lat;lon;timestamp;pressure;altitude;pressure_sealevel;temperature;humidity
70011;BME280;59543;37.950;-122.338;2022-07-24T00:00:05;101009.41;;;18.08;57.99
70011;BME280;59543;37.950;-122.338;2022-07-24T00:02:33;101005.38;;;18.03;58.38
70011;BME280;59543;37.950;-122.338;2022-07-24T00:04:59;101012.75;;;17.88;57.70
70011;BME280;59543;37.950;-122.338;2022-07-24T00:07:28;101003.66;;;17.66;58.82
70011;BME280;59543;37.950;-122.338;2022-07-24T00:09:54;100998.31;;;17.28;60.00
70011;BME280;59543;37.950;-122.338;2022-07-24T00:12:21;101000.81;;;17.00;60.71
70011;BME280;59543;37.950;-122.338;2022-07-24T00:14:47;101003.34;;;17.02;60.87
70011;BME280;59543;37.950;-122.338;2022-07-24T00:17:13;100998.84;;;16.94;61.37
70011;BME280;59543;37.950;-122.338;2022-07-24T00:19:39;101003.13;;;16.65;62.55
70011;BME280;59543;37.950;-122.338;2022-07-24T00:22:06;101007.31;;;16.76;61.89
70011;BME280;59543;37.950;-122.338;2022-07-24T00:24:32;101004.41;;;16.78;61.51
70011;BME280;59543;37.950;-122.338;2022-07-24T00:26:58;101010.53;;;16.72;62.16
70011;BME280;59543;37.950;-122.338;2022-07-24T00:29:27;101012.16;;;17.04;61.71
70011;BME280;59543;37.950;-122.338;2022-07-24T00:31:53;101020.44;;;16.87;62.02
70011;BME280;59543;37.950;-122.338;2022-07-24T00:34:19;101019.06;;;16.91;61.61
70011;BME280;59543;37.950;-122.338;2022-07-24T00:36:45;101015.06;;;16.56;62.24
70011;BME280;59543;37.950;-122.338;2022-07-24T00:39:12;101011.75;;;16.23;63.03
70011;BME280;59543;37.950;-122.338;2022-07-24T00:41:38;101005.19;;;15.86;63.82
70011;BME280;59543;37.950;-122.338;2022-07-24T00:44:11;101009.50;;;16.04;63.88
70011;BME280;59543;37.950;-122.338;2022-07-24T00:46:38;101007.28;;;16.07;63.73
70011;BME280;59543;37.950;-122.338;2022-07-24T00:49:11;101006.56;;;16.13;63.60
70011;BME280;59543;37.950;-122.338;2022-07-24T00:51:40;100997.03;;;16.17;63.47
70011;BME280;59543;37.950;-122.338;2022-07-24T00:54:08;100993.78;;;16.22;63.30
70011;BME280;59543;37.950;-122.338;2022-07-24T00:56:35;100999.50;;;16.04;64.22
70011;BME280;59543;37.950;-122.338;2022-07-24T00:59:03;100994.81;;;15.90;63.67
70011;BME280;59543;37.950;-122.338;2022-07-24T01:01:30;100992.59;;;15.93;63.28
70011;BME280;59543;37.950;-122.338;2022-07-24T01:03:57;100987.03;;;15.87;63.48
70011;BME280;59543;37.950;-122.338;2022-07-24T01:06:24;100981.69;;;15.70;64.09
70011;BME280;59543;37.950;-122.338;2022-07-24T01:08:51;100987.22;;;15.38;65.27
70011;BME280;59543;37.950;-122.338;2022-07-24T01:11:19;100981.47;;;15.24;66.13
70011;BME280;59543;37.950;-122.338;2022-07-24T01:13:47;100989.13;;;15.13;66.58
70011;BME280;59543;37.950;-122.338;2022-07-24T01:16:14;100972.03;;;15.04;67.00
70011;BME280;59543;37.950;-122.338;2022-07-24T01:18:41;100979.03;;;14.82;67.58
70011;BME280;59543;37.950;-122.338;2022-07-24T01:21:08;100976.50;;;14.72;68.17
70011;BME280;59543;37.950;-122.338;2022-07-24T01:23:35;100976.50;;;14.64;68.23
70011;BME280;59543;37.950;-122.338;2022-07-24T01:26:01;100974.81;;;14.71;68.13
70011;BME280;59543;37.950;-122.338;2022-07-24T01:28:28;100965.34;;;14.75;67.69
70011;BME280;59543;37.950;-122.338;2022-07-24T01:30:54;100965.00;;;14.70;68.26
70011;BME280;59543;37.950;-122.338;2022-07-24T01:33:20;100971.25;;;14.71;68.52
70011;BME280;59543;37.950;-122.338;2022-07-24T01:35:47;100969.25;;;14.56;68.46
70011;BME280;59543;37.950;-122.338;2022-07-24T01:38:13;100985.63;;;14.55;68.41
70011;BME280;59543;37.950;-122.338;2022-07-24T01:40:40;100974.44;;;14.33;68.86
70011;BME280;59543;37.950;-122.338;2022-07-24T01:43:06;100975.97;;;14.36;68.86
70011;BME280;59543;37.950;-122.338;2022-07-24T01:45:33;100972.75;;;14.32;69.00
70011;BME280;59543;37.950;-122.338;2022-07-24T01:48:00;100967.31;;;14.16;69.43
70011;BME280;59543;37.950;-122.338;2022-07-24T01:50:26;100967.47;;;14.06;69.77
70011;BME280;59543;37.950;-122.338;2022-07-24T01:52:52;100964.59;;;14.08;69.86
70011;BME280;59543;37.950;-122.338;2022-07-24T01:55:20;100972.97;;;13.80;70.53
70011;BME280;59543;37.950;-122.338;2022-07-24T01:57:46;100972.31;;;13.78;71.40
70011;BME280;59543;37.950;-122.338;2022-07-24T02:00:13;100975.34;;;13.75;71.12
70011;BME280;59543;37.950;-122.338;2022-07-24T02:02:41;100962.88;;;13.90;70.61
70011;BME280;59543;37.950;-122.338;2022-07-24T02:05:08;100980.53;;;13.68;71.28
70011;BME280;59543;37.950;-122.338;2022-07-24T02:07:34;100978.47;;;13.62;71.85
70011;BME280;59543;37.950;-122.338;2022-07-24T02:10:00;100978.03;;;13.75;71.46
70011;BME280;59543;37.950;-122.338;2022-07-24T02:12:27;100984.94;;;13.69;72.07
70011;BME280;59543;37.950;-122.338;2022-07-24T02:14:53;100983.09;;;13.70;72.30
70011;BME280;59543;37.950;-122.338;2022-07-24T02:17:19;100994.09;;;13.77;72.41
70011;BME280;59543;37.950;-122.338;2022-07-24T02:19:45;100984.13;;;13.77;72.07
70011;BME280;59543;37.950;-122.338;2022-07-24T02:22:11;100993.88;;;13.62;72.83
70011;BME280;59543;37.950;-122.338;2022-07-24T02:24:37;100993.16;;;13.60;73.25
70011;BME280;59543;37.950;-122.338;2022-07-24T02:27:04;100996.88;;;13.59;73.37
70011;BME280;59543;37.950;-122.338;2022-07-24T02:29:30;101004.69;;;13.62;73.71
70011;BME280;59543;37.950;-122.338;2022-07-24T02:31:56;100997.41;;;13.54;73.93
70011;BME280;59543;37.950;-122.338;2022-07-24T02:34:22;100997.06;;;13.57;72.80
70011;BME280;59543;37.950;-122.338;2022-07-24T02:36:48;100997.03;;;13.49;73.24
70011;BME280;59543;37.950;-122.338;2022-07-24T02:39:15;100995.03;;;13.25;73.60
70011;BME280;59543;37.950;-122.338;2022-07-24T02:41:41;101009.59;;;13.32;73.86
70011;BME280;59543;37.950;-122.338;2022-07-24T02:44:07;101001.72;;;13.39;72.88
70011;BME280;59543;37.950;-122.338;2022-07-24T02:46:33;101003.03;;;13.35;72.96
70011;BME280;59543;37.950;-122.338;2022-07-24T02:48:59;100996.56;;;13.27;73.42
70011;BME280;59543;37.950;-122.338;2022-07-24T02:51:26;100998.59;;;13.25;73.88
70011;BME280;59543;37.950;-122.338;2022-07-24T02:53:52;100997.25;;;13.03;74.69
70011;BME280;59543;37.950;-122.338;2022-07-24T02:56:18;101001.34;;;12.90;75.33
70011;BME280;59543;37.950;-122.338;2022-07-24T02:58:44;100995.50;;;12.94;75.19
70011;BME280;59543;37.950;-122.338;2022-07-24T03:01:10;101000.72;;;12.96;75.34
70011;BME280;59543;37.950;-122.338;2022-07-24T03:03:36;100996.97;;;12.89;75.39
70011;BME280;59543;37.950;-122.338;2022-07-24T03:06:03;100986.56;;;12.94;75.40
70011;BME280;59543;37.950;-122.338;2022-07-24T03:08:30;100995.88;;;12.81;75.84
70011;BME280;59543;37.950;-122.338;2022-07-24T03:10:56;100991.59;;;12.71;75.19
70011;BME280;59543;37.950;-122.338;2022-07-24T03:13:22;100992.41;;;12.89;74.42
70011;BME280;59543;37.950;-122.338;2022-07-24T03:15:49;100987.69;;;12.65;75.67
70011;BME280;59543;37.950;-122.338;2022-07-24T03:18:15;100986.00;;;12.64;76.07
70011;BME280;59543;37.950;-122.338;2022-07-24T03:20:42;100990.06;;;12.68;75.83
70011;BME280;59543;37.950;-122.338;2022-07-24T03:23:08;100995.56;;;12.58;75.97
70011;BME280;59543;37.950;-122.338;2022-07-24T03:25:34;100992.25;;;12.65;76.13
70011;BME280;59543;37.950;-122.338;2022-07-24T03:28:00;100991.63;;;12.53;76.87
70011;BME280;59543;37.950;-122.338;2022-07-24T03:30:26;100997.78;;;12.45;76.98
70011;BME280;59543;37.950;-122.338;2022-07-24T03:32:53;100991.81;;;12.33;77.41
70011;BME280;59543;37.950;-122.338;2022-07-24T03:35:19;100993.19;;;12.38;77.62
70011;BME280;59543;37.950;-122.338;2022-07-24T03:37:45;101000.88;;;12.32;77.91
70011;BME280;59543;37.950;-122.338;2022-07-24T03:40:12;100990.41;;;12.29;77.76
70011;BME280;59543;37.950;-122.338;2022-07-24T03:42:38;100989.69;;;12.27;77.78
70011;BME280;59543;37.950;-122.338;2022-07-24T03:45:04;100992.03;;;12.22;77.64
70011;BME280;59543;37.950;-122.338;2022-07-24T03:47:31;100989.56;;;12.29;77.14
70011;BME280;59543;37.950;-122.338;2022-07-24T03:49:57;100989.41;;;12.12;77.41
70011;BME280;59543;37.950;-122.338;2022-07-24T03:52:24;100993.00;;;12.03;78.24
70011;BME280;59543;37.950;-122.338;2022-07-24T03:54:51;100991.47;;;12.01;78.52
70011;BME280;59543;37.950;-122.338;2022-07-24T03:57:17;100989.75;;;12.00;78.75
70011;BME280;59543;37.950;-122.338;2022-07-24T03:59:43;100994.31;;;11.99;79.79
70011;BME280;59543;37.950;-122.338;2022-07-24T04:02:10;100997.22;;;11.88;79.50
70011;BME280;59543;37.950;-122.338;2022-07-24T04:04:36;100994.63;;;11.96;79.30
70011;BME280;59543;37.950;-122.338;2022-07-24T04:07:02;100996.56;;;12.04;79.50
70011;BME280;59543;37.950;-122.338;2022-07-24T04:09:28;100990.78;;;11.99;79.24
70011;BME280;59543;37.950;-122.338;2022-07-24T04:11:54;101003.00;;;11.93;79.43
70011;BME280;59543;37.950;-122.338;2022-07-24T04:14:21;100988.38;;;11.96;79.20
70011;BME280;59543;37.950;-122.338;2022-07-24T04:16:47;100997.00;;;11.99;79.46
70011;BME280;59543;37.950;-122.338;2022-07-24T04:19:13;100997.47;;;11.95;79.53
70011;BME280;59543;37.950;-122.338;2022-07-24T04:21:39;101012.09;;;11.92;79.12
70011;BME280;59543;37.950;-122.338;2022-07-24T04:24:06;101011.34;;;12.00;79.49
70011;BME280;59543;37.950;-122.338;2022-07-24T04:26:33;101006.88;;;12.08;79.27
70011;BME280;59543;37.950;-122.338;2022-07-24T04:28:59;101014.34;;;11.97;79.57
70011;BME280;59543;37.950;-122.338;2022-07-24T04:31:25;101016.50;;;11.93;79.60
70011;BME280;59543;37.950;-122.338;2022-07-24T04:33:51;101024.59;;;11.83;80.07
70011;BME280;59543;37.950;-122.338;2022-07-24T04:36:17;101029.06;;;12.02;79.52
70011;BME280;59543;37.950;-122.338;2022-07-24T04:38:44;101028.44;;;12.08;79.33
70011;BME280;59543;37.950;-122.338;2022-07-24T04:41:10;101031.25;;;12.17;78.98
70011;BME280;59543;37.950;-122.338;2022-07-24T04:43:37;101022.97;;;12.18;78.92
70011;BME280;59543;37.950;-122.338;2022-07-24T04:46:04;101029.00;;;12.12;78.99
70011;BME280;59543;37.950;-122.338;2022-07-24T04:48:31;101027.81;;;11.97;79.64
70011;BME280;59543;37.950;-122.338;2022-07-24T04:50:57;101032.47;;;12.04;79.18
70011;BME280;59543;37.950;-122.338;2022-07-24T04:53:24;101032.91;;;12.00;79.33
70011;BME280;59543;37.950;-122.338;2022-07-24T04:55:50;101037.06;;;12.12;78.98
70011;BME280;59543;37.950;-122.338;2022-07-24T04:58:16;101040.94;;;12.09;78.84
70011;BME280;59543;37.950;-122.338;2022-07-24T05:00:43;101044.22;;;12.03;78.93
70011;BME280;59543;37.950;-122.338;2022-07-24T05:03:09;101038.69;;;12.05;79.04
70011;BME280;59543;37.950;-122.338;2022-07-24T05:05:35;101035.28;;;12.03;78.65
70011;BME280;59543;37.950;-122.338;2022-07-24T05:08:01;101036.59;;;11.99;78.88
70011;BME280;59543;37.950;-122.338;2022-07-24T05:10:27;101035.75;;;11.98;78.42
70011;BME280;59543;37.950;-122.338;2022-07-24T05:12:54;101038.06;;;11.93;79.08
70011;BME280;59543;37.950;-122.338;2022-07-24T05:15:20;101030.81;;;11.94;79.44
70011;BME280;59543;37.950;-122.338;2022-07-24T05:17:46;101041.00;;;12.00;79.67
70011;BME280;59543;37.950;-122.338;2022-07-24T05:20:13;101027.06;;;12.04;79.65
70011;BME280;59543;37.950;-122.338;2022-07-24T05:22:39;101033.41;;;12.13;79.82
70011;BME280;59543;37.950;-122.338;2022-07-24T05:25:06;101026.69;;;12.17;79.56
70011;BME280;59543;37.950;-122.338;2022-07-24T05:27:32;101027.53;;;12.18;79.84
70011;BME280;59543;37.950;-122.338;2022-07-24T05:29:59;101038.09;;;12.11;80.34
70011;BME280;59543;37.950;-122.338;2022-07-24T05:32:25;101041.41;;;12.23;79.78
70011;BME280;59543;37.950;-122.338;2022-07-24T05:34:51;101035.78;;;12.16;79.66
70011;BME280;59543;37.950;-122.338;2022-07-24T05:37:17;101042.63;;;12.10;80.09
70011;BME280;59543;37.950;-122.338;2022-07-24T05:39:43;101026.16;;;12.13;80.25
70011;BME280;59543;37.950;-122.338;2022-07-24T05:42:09;101030.63;;;12.23;79.60
70011;BME280;59543;37.950;-122.338;2022-07-24T05:44:36;101028.63;;;12.25;79.81
70011;BME280;59543;37.950;-122.338;2022-07-24T05:47:03;101030.41;;;12.34;79.62
70011;BME280;59543;37.950;-122.338;2022-07-24T05:49:30;101032.84;;;12.27;79.77
70011;BME280;59543;37.950;-122.338;2022-07-24T05:51:56;101026.00;;;12.33;79.80
70011;BME280;59543;37.950;-122.338;2022-07-24T05:54:22;101031.88;;;12.28;79.75
70011;BME280;59543;37.950;-122.338;2022-07-24T05:56:48;101030.03;;;12.29;79.94
70011;BME280;59543;37.950;-122.338;2022-07-24T05:59:15;101045.44;;;12.37;79.56
70011;BME280;59543;37.950;-122.338;2022-07-24T06:01:41;101040.81;;;12.29;79.63
70011;BME280;59543;37.950;-122.338;2022-07-24T06:04:07;101047.81;;;12.22;80.13
70011;BME280;59543;37.950;-122.338;2022-07-24T06:06:33;101045.06;;;12.31;79.71
70011;BME280;59543;37.950;-122.338;2022-07-24T06:08:59;101046.97;;;12.39;79.50
70011;BME280;59543;37.950;-122.338;2022-07-24T06:11:26;101041.53;;;12.49;79.33
70011;BME280;59543;37.950;-122.338;2022-07-24T06:13:52;101041.88;;;12.36;79.69
70011;BME280;59543;37.950;-122.338;2022-07-24T06:16:18;101052.84;;;12.34;79.96
70011;BME280;59543;37.950;-122.338;2022-07-24T06:18:45;101050.97;;;12.35;79.83
70011;BME280;59543;37.950;-122.338;2022-07-24T06:21:11;101046.66;;;12.42;79.23
70011;BME280;59543;37.950;-122.338;2022-07-24T06:23:37;101052.44;;;12.47;79.17
70011;BME280;59543;37.950;-122.338;2022-07-24T06:26:04;101043.91;;;12.34;79.68
70011;BME280;59543;37.950;-122.338;2022-07-24T06:28:30;101038.50;;;12.34;79.38
70011;BME280;59543;37.950;-122.338;2022-07-24T06:30:56;101031.97;;;12.37;79.15
70011;BME280;59543;37.950;-122.338;2022-07-24T06:33:23;101036.78;;;12.33;79.43
70011;BME280;59543;37.950;-122.338;2022-07-24T06:35:49;101039.34;;;12.34;79.51
70011;BME280;59543;37.950;-122.338;2022-07-24T06:38:15;101037.50;;;12.35;79.68
70011;BME280;59543;37.950;-122.338;2022-07-24T06:40:42;101030.78;;;12.39;79.69
70011;BME280;59543;37.950;-122.338;2022-07-24T06:43:09;101046.28;;;12.37;79.62
70011;BME280;59543;37.950;-122.338;2022-07-24T06:45:35;101039.19;;;12.36;79.84
70011;BME280;59543;37.950;-122.338;2022-07-24T06:48:02;101047.28;;;12.36;79.90
70011;BME280;59543;37.950;-122.338;2022-07-24T06:50:29;101042.75;;;12.37;80.10
70011;BME280;59543;37.950;-122.338;2022-07-24T06:52:55;101045.81;;;12.42;79.90
70011;BME280;59543;37.950;-122.338;2022-07-24T06:55:22;101055.16;;;12.47;79.58
70011;BME280;59543;37.950;-122.338;2022-07-24T06:57:48;101046.84;;;12.41;80.02
70011;BME280;59543;37.950;-122.338;2022-07-24T07:00:14;101055.75;;;12.41;80.25
70011;BME280;59543;37.950;-122.338;2022-07-24T07:02:41;101054.00;;;12.32;80.42
70011;BME280;59543;37.950;-122.338;2022-07-24T07:05:08;101046.66;;;12.42;79.85
70011;BME280;59543;37.950;-122.338;2022-07-24T07:07:35;101047.22;;;12.46;79.95
70011;BME280;59543;37.950;-122.338;2022-07-24T07:10:02;101045.44;;;12.54;79.31
70011;BME280;59543;37.950;-122.338;2022-07-24T07:12:28;101049.53;;;12.41;79.77
70011;BME280;59543;37.950;-122.338;2022-07-24T07:14:54;101054.41;;;12.55;79.49
70011;BME280;59543;37.950;-122.338;2022-07-24T07:17:21;101044.22;;;12.67;78.96
70011;BME280;59543;37.950;-122.338;2022-07-24T07:19:47;101049.38;;;12.60;79.33
70011;BME280;59543;37.950;-122.338;2022-07-24T07:22:13;101043.91;;;12.70;79.04
70011;BME280;59543;37.950;-122.338;2022-07-24T07:24:39;101051.53;;;12.74;78.77
70011;BME280;59543;37.950;-122.338;2022-07-24T07:27:06;101058.91;;;12.72;78.52
70011;BME280;59543;37.950;-122.338;2022-07-24T07:29:32;101053.16;;;12.67;78.80
70011;BME280;59543;37.950;-122.338;2022-07-24T07:31:59;101052.47;;;12.65;78.98
70011;BME280;59543;37.950;-122.338;2022-07-24T07:34:25;101052.47;;;12.65;78.82
70011;BME280;59543;37.950;-122.338;2022-07-24T07:36:52;101052.22;;;12.58;79.39
70011;BME280;59543;37.950;-122.338;2022-07-24T07:39:18;101042.19;;;12.69;78.88
70011;BME280;59543;37.950;-122.338;2022-07-24T07:41:45;101049.31;;;12.70;78.62
70011;BME280;59543;37.950;-122.338;2022-07-24T07:44:11;101052.00;;;12.70;78.47
70011;BME280;59543;37.950;-122.338;2022-07-24T07:46:37;101047.69;;;12.59;78.81
70011;BME280;59543;37.950;-122.338;2022-07-24T07:49:04;101050.59;;;12.66;78.46
70011;BME280;59543;37.950;-122.338;2022-07-24T07:51:30;101048.81;;;12.56;78.54
70011;BME280;59543;37.950;-122.338;2022-07-24T07:53:56;101046.53;;;12.62;79.09
70011;BME280;59543;37.950;-122.338;2022-07-24T07:56:22;101051.53;;;12.56;79.24
70011;BME280;59543;37.950;-122.338;2022-07-24T07:58:49;101050.06;;;12.62;79.47
70011;BME280;59543;37.950;-122.338;2022-07-24T08:01:15;101052.75;;;12.62;79.62
70011;BME280;59543;37.950;-122.338;2022-07-24T08:03:41;101053.06;;;12.59;79.60
70011;BME280;59543;37.950;-122.338;2022-07-24T08:06:09;101053.69;;;12.53;79.84
70011;BME280;59543;37.950;-122.338;2022-07-24T08:08:35;101049.13;;;12.53;79.56
70011;BME280;59543;37.950;-122.338;2022-07-24T08:11:01;101050.28;;;12.51;80.11
70011;BME280;59543;37.950;-122.338;2022-07-24T08:13:28;101035.56;;;12.63;79.84
70011;BME280;59543;37.950;-122.338;2022-07-24T08:15:54;101047.59;;;12.69;79.50
70011;BME280;59543;37.950;-122.338;2022-07-24T08:18:20;101049.13;;;12.71;79.45
70011;BME280;59543;37.950;-122.338;2022-07-24T08:20:46;101045.06;;;12.49;79.92
70011;BME280;59543;37.950;-122.338;2022-07-24T08:23:12;101049.00;;;12.55;79.81
70011;BME280;59543;37.950;-122.338;2022-07-24T08:25:39;101044.44;;;12.73;79.60
70011;BME280;59543;37.950;-122.338;2022-07-24T08:28:05;101042.19;;;12.69;79.67
70011;BME280;59543;37.950;-122.338;2022-07-24T08:30:32;101044.28;;;12.57;79.40
70011;BME280;59543;37.950;-122.338;2022-07-24T08:32:58;101042.44;;;12.57;79.72
70011;BME280;59543;37.950;-122.338;2022-07-24T08:35:24;101047.69;;;12.59;79.95
70011;BME280;59543;37.950;-122.338;2022-07-24T08:37:50;101043.44;;;12.56;79.91
70011;BME280;59543;37.950;-122.338;2022-07-24T08:40:17;101037.94;;;12.66;79.46
70011;BME280;59543;37.950;-122.338;2022-07-24T08:42:43;101042.81;;;12.63;79.59
70011;BME280;59543;37.950;-122.338;2022-07-24T08:45:09;101049.44;;;12.68;79.54
70011;BME280;59543;37.950;-122.338;2022-07-24T08:47:38;101041.03;;;12.71;79.73
70011;BME280;59543;37.950;-122.338;2022-07-24T08:50:05;101049.00;;;12.73;79.38
70011;BME280;59543;37.950;-122.338;2022-07-24T08:52:33;101048.22;;;12.63;79.72
70011;BME280;59543;37.950;-122.338;2022-07-24T08:55:03;101044.97;;;12.59;80.10
70011;BME280;59543;37.950;-122.338;2022-07-24T08:57:29;101042.41;;;12.75;79.46
70011;BME280;59543;37.950;-122.338;2022-07-24T08:59:56;101050.16;;;12.70;79.47
70011;BME280;59543;37.950;-122.338;2022-07-24T09:02:22;101042.06;;;12.70;79.33
70011;BME280;59543;37.950;-122.338;2022-07-24T09:04:49;101053.25;;;12.57;79.48
70011;BME280;59543;37.950;-122.338;2022-07-24T09:07:20;101050.53;;;12.57;79.64
70011;BME280;59543;37.950;-122.338;2022-07-24T09:10:10;101051.53;;;12.56;79.52
70011;BME280;59543;37.950;-122.338;2022-07-24T09:12:40;101052.06;;;12.42;80.28
70011;BME280;59543;37.950;-122.338;2022-07-24T09:15:20;101056.16;;;12.46;79.94
70011;BME280;59543;37.950;-122.338;2022-07-24T09:17:52;101056.25;;;12.37;80.17
70011;BME280;59543;37.950;-122.338;2022-07-24T09:20:19;101052.75;;;12.44;80.05
70011;BME280;59543;37.950;-122.338;2022-07-24T09:22:45;101055.75;;;12.41;80.12
70011;BME280;59543;37.950;-122.338;2022-07-24T09:25:19;101049.44;;;12.50;79.86
70011;BME280;59543;37.950;-122.338;2022-07-24T09:27:52;101046.75;;;12.50;79.87
70011;BME280;59543;37.950;-122.338;2022-07-24T09:30:31;101048.53;;;12.59;79.88
70011;BME280;59543;37.950;-122.338;2022-07-24T09:35:35;101045.59;;;12.71;79.50
70011;BME280;59543;37.950;-122.338;2022-07-24T09:38:03;101049.31;;;12.70;79.63
70011;BME280;59543;37.950;-122.338;2022-07-24T09:40:32;101046.34;;;12.63;79.53
70011;BME280;59543;37.950;-122.338;2022-07-24T09:43:17;101042.50;;;12.66;79.43
70011;BME280;59543;37.950;-122.338;2022-07-24T09:48:31;101041.44;;;12.58;79.47
70011;BME280;59543;37.950;-122.338;2022-07-24T09:51:11;101041.44;;;12.58;79.24
70011;BME280;59543;37.950;-122.338;2022-07-24T09:53:43;101041.34;;;12.50;79.45
70011;BME280;59543;37.950;-122.338;2022-07-24T09:56:17;101050.59;;;12.48;80.07
70011;BME280;59543;37.950;-122.338;2022-07-24T09:58:47;101045.50;;;12.45;80.08
70011;BME280;59543;37.950;-122.338;2022-07-24T10:01:16;101045.81;;;12.42;80.27
70011;BME280;59543;37.950;-122.338;2022-07-24T10:03:45;101045.81;;;12.42;79.89
70011;BME280;59543;37.950;-122.338;2022-07-24T10:06:17;101040.59;;;12.40;80.02
70011;BME280;59543;37.950;-122.338;2022-07-24T10:08:45;101039.28;;;12.44;79.79
70011;BME280;59543;37.950;-122.338;2022-07-24T10:11:12;101033.13;;;12.34;80.39
70011;BME280;59543;37.950;-122.338;2022-07-24T10:13:39;101032.03;;;12.45;79.95
70011;BME280;59543;37.950;-122.338;2022-07-24T10:16:22;101029.94;;;12.39;80.25
70011;BME280;59543;37.950;-122.338;2022-07-24T10:26:40;101018.22;;;12.48;79.82
70011;BME280;59543;37.950;-122.338;2022-07-24T10:29:09;101024.09;;;12.61;79.13
70011;BME280;59543;37.950;-122.338;2022-07-24T10:31:37;101029.94;;;12.56;79.64
70011;BME280;59543;37.950;-122.338;2022-07-24T10:36:45;101025.47;;;12.47;80.53
70011;BME280;59543;37.950;-122.338;2022-07-24T10:39:22;101030.34;;;12.44;80.81
70011;BME280;59543;37.950;-122.338;2022-07-24T10:42:05;101026.72;;;12.53;80.72
70011;BME280;59543;37.950;-122.338;2022-07-24T10:44:32;101028.03;;;12.49;80.36
70011;BME280;59543;37.950;-122.338;2022-07-24T10:47:05;101027.41;;;12.37;80.91
70011;BME280;59543;37.950;-122.338;2022-07-24T10:52:05;101025.06;;;12.42;81.00
70011;BME280;59543;37.950;-122.338;2022-07-24T10:54:31;101031.56;;;12.49;80.78
70011;BME280;59543;37.950;-122.338;2022-07-24T10:56:57;101029.84;;;12.48;80.75
70011;BME280;59543;37.950;-122.338;2022-07-24T10:59:38;101037.06;;;12.40;80.84
70011;BME280;59543;37.950;-122.338;2022-07-24T11:02:26;101037.09;;;12.48;80.60
70011;BME280;59543;37.950;-122.338;2022-07-24T11:05:24;101034.94;;;12.51;80.38
70011;BME280;59543;37.950;-122.338;2022-07-24T11:08:27;101046.03;;;12.48;80.45
70011;BME280;59543;37.950;-122.338;2022-07-24T11:11:10;101039.19;;;12.54;79.99
70011;BME280;59543;37.950;-122.338;2022-07-24T11:26:54;101040.34;;;12.51;80.69
70011;BME280;59543;37.950;-122.338;2022-07-24T11:29:34;101038.88;;;12.57;80.08
70011;BME280;59543;37.950;-122.338;2022-07-24T11:32:03;101033.03;;;12.44;80.44
70011;BME280;59543;37.950;-122.338;2022-07-24T11:34:31;101037.28;;;12.46;80.43
70011;BME280;59543;37.950;-122.338;2022-07-24T11:36:59;101033.16;;;12.60;79.86
70011;BME280;59543;37.950;-122.338;2022-07-24T11:39:34;101031.66;;;12.57;79.79
70011;BME280;59543;37.950;-122.338;2022-07-24T11:42:06;101032.31;;;12.59;79.74
70011;BME280;59543;37.950;-122.338;2022-07-24T11:44:37;101040.91;;;12.55;80.01
70011;BME280;59543;37.950;-122.338;2022-07-24T11:49:47;101033.13;;;12.34;80.66
70011;BME280;59543;37.950;-122.338;2022-07-24T11:52:16;101032.50;;;12.40;80.38
70011;BME280;59543;37.950;-122.338;2022-07-24T11:54:44;101035.50;;;12.37;80.69
70011;BME280;59543;37.950;-122.338;2022-07-24T11:57:19;101046.97;;;12.39;80.73
70011;BME280;59543;37.950;-122.338;2022-07-24T11:59:47;101044.44;;;12.38;81.05
70011;BME280;59543;37.950;-122.338;2022-07-24T12:02:15;101042.28;;;12.41;80.80
70011;BME280;59543;37.950;-122.338;2022-07-24T12:04:42;101037.09;;;12.48;80.51
70011;BME280;59543;37.950;-122.338;2022-07-24T12:07:10;101045.59;;;12.53;80.21
70011;BME280;59543;37.950;-122.338;2022-07-24T12:09:48;101044.84;;;12.43;80.68
70011;BME280;59543;37.950;-122.338;2022-07-24T12:12:22;101042.28;;;12.41;80.83
70011;BME280;59543;37.950;-122.338;2022-07-24T12:14:52;101046.97;;;12.39;80.96
70011;BME280;59543;37.950;-122.338;2022-07-24T12:17:19;101050.84;;;12.37;81.13
70011;BME280;59543;37.950;-122.338;2022-07-24T12:19:53;101042.38;;;12.49;80.70
70011;BME280;59543;37.950;-122.338;2022-07-24T12:22:20;101045.38;;;12.46;80.56
70011;BME280;59543;37.950;-122.338;2022-07-24T12:24:48;101052.38;;;12.39;80.76
70011;BME280;59543;37.950;-122.338;2022-07-24T12:27:41;101056.16;;;12.46;80.69
70011;BME280;59543;37.950;-122.338;2022-07-24T12:30:28;101065.53;;;12.42;80.61
70011;BME280;59543;37.950;-122.338;2022-07-24T12:32:57;101060.84;;;12.44;80.28
70011;BME280;59543;37.950;-122.338;2022-07-24T12:35:24;101055.16;;;12.47;80.05
70011;BME280;59543;37.950;-122.338;2022-07-24T12:37:52;101058.63;;;12.40;80.67
70011;BME280;59543;37.950;-122.338;2022-07-24T12:40:34;101064.66;;;12.33;81.00
70011;BME280;59543;37.950;-122.338;2022-07-24T12:43:08;101060.47;;;12.39;81.09
70011;BME280;59543;37.950;-122.338;2022-07-24T12:45:35;101061.78;;;12.35;81.14
70011;BME280;59543;37.950;-122.338;2022-07-24T12:48:17;101061.78;;;12.35;80.63
70011;BME280;59543;37.950;-122.338;2022-07-24T12:51:01;101069.34;;;12.31;80.98
70011;BME280;59543;37.950;-122.338;2022-07-24T12:53:30;101068.31;;;12.32;80.93
70011;BME280;59543;37.950;-122.338;2022-07-24T12:56:06;101078.56;;;12.29;80.90
70011;BME280;59543;37.950;-122.338;2022-07-24T12:58:57;101073.59;;;12.52;80.47